VOE9BN LEAS-LPPR
Flight info
| Callsign | VOE9BN |
|---|---|
| Flight time | 1h 1m |
| Altitude | 23000 |
| Route | KUVAN N872 RALUS DCT BELDU DCT INKIT |
| Aircraft | A320/M-SDE3FGHIRWY/LB1 |
Departure
| Time | 2026-05-01 10:04 |
|---|---|
| Airport | Asturias Airport (LEAS) |
Arrival
| Time | 2026-05-01 11:06 |
|---|---|
| Airport | Francisco de Sá Carneiro Airport (LPPR) |
| Time | Latitude | Longitude | Altitude | Speed | Heading |
|---|---|---|---|---|---|
| 2026-05-01 09:35 | 43.55938 | -6.02966 | 417 ft | 0 kts | 241° |
| 2026-05-01 09:56 | 43.55941 | -6.02972 | 415 ft | 1 kts | 295° |
| 2026-05-01 09:56 | 43.55965 | -6.02974 | 420 ft | 5 kts | 26° |
| 2026-05-01 09:57 | 43.56003 | -6.02921 | 420 ft | 10 kts | 42° |
| 2026-05-01 09:57 | 43.56043 | -6.02828 | 424 ft | 15 kts | 102° |
| 2026-05-01 09:57 | 43.56003 | -6.02670 | 417 ft | 19 kts | 109° |
| 2026-05-01 09:57 | 43.55966 | -6.02509 | 422 ft | 11 kts | 107° |
| 2026-05-01 09:58 | 43.55950 | -6.02438 | 414 ft | 5 kts | 106° |
| 2026-05-01 09:58 | 43.55945 | -6.02403 | 422 ft | 2 kts | 96° |
| 2026-05-01 09:58 | 43.55946 | -6.02394 | 425 ft | 0 kts | 88° |
| 2026-05-01 09:59 | 43.55946 | -6.02380 | 425 ft | 3 kts | 84° |
| 2026-05-01 09:59 | 43.55950 | -6.02358 | 426 ft | 2 kts | 72° |
| 2026-05-01 10:00 | 43.55956 | -6.02340 | 426 ft | 1 kts | 67° |
| 2026-05-01 10:00 | 43.55959 | -6.02332 | 418 ft | 0 kts | 67° |
| 2026-05-01 10:00 | 43.55959 | -6.02331 | 418 ft | 0 kts | 67° |
| 2026-05-01 10:01 | 43.55964 | -6.02315 | 423 ft | 4 kts | 66° |
| 2026-05-01 10:01 | 43.55975 | -6.02287 | 420 ft | 3 kts | 61° |
| 2026-05-01 10:02 | 43.55985 | -6.02261 | 419 ft | 3 kts | 62° |
| 2026-05-01 10:02 | 43.56003 | -6.02220 | 413 ft | 6 kts | 42° |
| 2026-05-01 10:02 | 43.56041 | -6.02206 | 421 ft | 6 kts | 2° |
| 2026-05-01 10:02 | 43.56069 | -6.02245 | 414 ft | 7 kts | 292° |
| 2026-05-01 10:03 | 43.56071 | -6.02252 | 420 ft | 0 kts | 290° |
| 2026-05-01 10:03 | 43.56072 | -6.02259 | 420 ft | 1 kts | 288° |
| 2026-05-01 10:03 | 43.56085 | -6.02310 | 414 ft | 22 kts | 288° |
| 2026-05-01 10:04 | 43.56219 | -6.02875 | 429 ft | 97 kts | 288° |
| 2026-05-01 10:04 | 43.56486 | -6.04001 | 461 ft | 148 kts | 288° |
| 2026-05-01 10:04 | 43.56821 | -6.05426 | 979 ft | 157 kts | 288° |
| 2026-05-01 10:04 | 43.57163 | -6.06871 | 1543 ft | 158 kts | 289° |
| 2026-05-01 10:05 | 43.57504 | -6.08314 | 2206 ft | 159 kts | 288° |
| 2026-05-01 10:05 | 43.57866 | -6.09849 | 2623 ft | 179 kts | 288° |
| 2026-05-01 10:05 | 43.58271 | -6.11560 | 2983 ft | 201 kts | 288° |
| 2026-05-01 10:05 | 43.58736 | -6.13521 | 3478 ft | 220 kts | 288° |
| 2026-05-01 10:06 | 43.59181 | -6.15532 | 4285 ft | 224 kts | 279° |
| 2026-05-01 10:06 | 43.58970 | -6.17625 | 5119 ft | 225 kts | 238° |
| 2026-05-01 10:06 | 43.57836 | -6.19058 | 5966 ft | 224 kts | 206° |
| 2026-05-01 10:06 | 43.56381 | -6.19845 | 6876 ft | 225 kts | 197° |
| 2026-05-01 10:07 | 43.54875 | -6.20430 | 7744 ft | 226 kts | 194° |
| 2026-05-01 10:07 | 43.53344 | -6.20988 | 8597 ft | 229 kts | 194° |
| 2026-05-01 10:07 | 43.51802 | -6.21571 | 9478 ft | 231 kts | 194° |
| 2026-05-01 10:07 | 43.50251 | -6.22187 | 10349 ft | 233 kts | 195° |
| 2026-05-01 10:08 | 43.47105 | -6.23491 | 11980 ft | 239 kts | 193° |
| 2026-05-01 10:08 | 43.45413 | -6.23909 | 12470 ft | 258 kts | 190° |
| 2026-05-01 10:08 | 43.43557 | -6.24328 | 12803 ft | 283 kts | 190° |
| 2026-05-01 10:09 | 43.41537 | -6.24784 | 13111 ft | 307 kts | 190° |
| 2026-05-01 10:09 | 43.39347 | -6.25277 | 13373 ft | 330 kts | 190° |
| 2026-05-01 10:09 | 43.37023 | -6.25804 | 13851 ft | 344 kts | 190° |
| 2026-05-01 10:09 | 43.34647 | -6.26345 | 14523 ft | 349 kts | 190° |
| 2026-05-01 10:10 | 43.32234 | -6.26896 | 15281 ft | 352 kts | 190° |
| 2026-05-01 10:10 | 43.29813 | -6.27450 | 16026 ft | 355 kts | 190° |
| 2026-05-01 10:10 | 43.24897 | -6.28569 | 17474 ft | 361 kts | 190° |
| 2026-05-01 10:11 | 43.22415 | -6.29132 | 18215 ft | 363 kts | 190° |
| 2026-05-01 10:11 | 43.19913 | -6.29699 | 18847 ft | 366 kts | 191° |
| 2026-05-01 10:11 | 43.17389 | -6.30270 | 19466 ft | 369 kts | 190° |
| 2026-05-01 10:11 | 43.14846 | -6.30848 | 20054 ft | 372 kts | 190° |
| 2026-05-01 10:12 | 43.12325 | -6.31465 | 20643 ft | 374 kts | 194° |
| 2026-05-01 10:12 | 43.10636 | -6.32163 | 21044 ft | 376 kts | 201° |
| 2026-05-01 10:12 | 43.05152 | -6.35914 | 22323 ft | 383 kts | 207° |
| 2026-05-01 10:13 | 43.02779 | -6.37597 | 22881 ft | 386 kts | 207° |
| 2026-05-01 10:13 | 43.00392 | -6.39284 | 23107 ft | 387 kts | 207° |
| 2026-05-01 10:13 | 42.97980 | -6.40986 | 23142 ft | 391 kts | 207° |
| 2026-05-01 10:14 | 42.93139 | -6.44395 | 23145 ft | 392 kts | 207° |
| 2026-05-01 10:14 | 42.90713 | -6.46097 | 23146 ft | 392 kts | 207° |
| 2026-05-01 10:14 | 42.88290 | -6.47797 | 23150 ft | 390 kts | 207° |
| 2026-05-01 10:14 | 42.85883 | -6.49489 | 23145 ft | 389 kts | 207° |
| 2026-05-01 10:15 | 42.84288 | -6.50610 | 23147 ft | 388 kts | 207° |
| 2026-05-01 10:15 | 42.81888 | -6.52295 | 23140 ft | 389 kts | 207° |
| 2026-05-01 10:15 | 42.79483 | -6.53983 | 23147 ft | 389 kts | 207° |
| 2026-05-01 10:15 | 42.77076 | -6.55662 | 23147 ft | 389 kts | 207° |
| 2026-05-01 10:16 | 42.74661 | -6.57328 | 23148 ft | 389 kts | 207° |
| 2026-05-01 10:16 | 42.72248 | -6.58982 | 23147 ft | 389 kts | 207° |
| 2026-05-01 10:16 | 42.67416 | -6.62286 | 23147 ft | 389 kts | 207° |
| 2026-05-01 10:17 | 42.64999 | -6.63938 | 23148 ft | 389 kts | 207° |
| 2026-05-01 10:17 | 42.60167 | -6.67239 | 23148 ft | 389 kts | 207° |
| 2026-05-01 10:17 | 42.57753 | -6.68889 | 23149 ft | 389 kts | 207° |
| 2026-05-01 10:18 | 42.52917 | -6.72182 | 23153 ft | 389 kts | 207° |
| 2026-05-01 10:18 | 42.50504 | -6.73828 | 23151 ft | 389 kts | 207° |
| 2026-05-01 10:18 | 42.48086 | -6.75477 | 23154 ft | 389 kts | 207° |
| 2026-05-01 10:19 | 42.45668 | -6.77123 | 23156 ft | 389 kts | 207° |
| 2026-05-01 10:19 | 42.43251 | -6.78766 | 23157 ft | 389 kts | 207° |
| 2026-05-01 10:19 | 42.40832 | -6.80407 | 23154 ft | 389 kts | 207° |
| 2026-05-01 10:20 | 42.36027 | -6.83665 | 23155 ft | 389 kts | 207° |
| 2026-05-01 10:20 | 42.33605 | -6.85309 | 23165 ft | 389 kts | 207° |
| 2026-05-01 10:20 | 42.31186 | -6.86949 | 23158 ft | 390 kts | 207° |
| 2026-05-01 10:20 | 42.28757 | -6.88591 | 23157 ft | 390 kts | 207° |
| 2026-05-01 10:21 | 42.26329 | -6.90227 | 23159 ft | 390 kts | 207° |
| 2026-05-01 10:21 | 42.21472 | -6.93503 | 23161 ft | 390 kts | 207° |
| 2026-05-01 10:21 | 42.19042 | -6.95141 | 23153 ft | 390 kts | 207° |
| 2026-05-01 10:22 | 42.14160 | -6.98350 | 23157 ft | 391 kts | 206° |
| 2026-05-01 10:22 | 42.09260 | -7.01516 | 23159 ft | 391 kts | 206° |
| 2026-05-01 10:23 | 42.06811 | -7.03102 | 23158 ft | 390 kts | 207° |
| 2026-05-01 10:23 | 42.01918 | -7.06282 | 23159 ft | 391 kts | 207° |
| 2026-05-01 10:23 | 41.99471 | -7.07873 | 23159 ft | 391 kts | 207° |
| 2026-05-01 10:24 | 41.94595 | -7.11091 | 23143 ft | 390 kts | 211° |
| 2026-05-01 10:24 | 41.90303 | -7.15520 | 23142 ft | 390 kts | 221° |
| 2026-05-01 10:25 | 41.86216 | -7.20244 | 23149 ft | 390 kts | 221° |
| 2026-05-01 10:25 | 41.82100 | -7.24991 | 23161 ft | 390 kts | 221° |
| 2026-05-01 10:26 | 41.80040 | -7.27364 | 23158 ft | 390 kts | 221° |
| 2026-05-01 10:26 | 41.77977 | -7.29739 | 23163 ft | 390 kts | 221° |
| 2026-05-01 10:26 | 41.73855 | -7.34470 | 23157 ft | 390 kts | 221° |
| 2026-05-01 10:27 | 41.69731 | -7.39201 | 23157 ft | 390 kts | 221° |
| 2026-05-01 10:27 | 41.65604 | -7.43920 | 23158 ft | 390 kts | 221° |
| 2026-05-01 10:28 | 41.63537 | -7.46279 | 23156 ft | 391 kts | 221° |
| 2026-05-01 10:28 | 41.59409 | -7.50999 | 23157 ft | 391 kts | 221° |
| 2026-05-01 10:28 | 41.57345 | -7.53357 | 23155 ft | 390 kts | 221° |
| 2026-05-01 10:29 | 41.53261 | -7.58000 | 22716 ft | 381 kts | 221° |
| 2026-05-01 10:29 | 41.51246 | -7.60285 | 22447 ft | 379 kts | 221° |
| 2026-05-01 10:30 | 41.47249 | -7.64818 | 21924 ft | 375 kts | 221° |
| 2026-05-01 10:30 | 41.43289 | -7.69316 | 21407 ft | 372 kts | 221° |
| 2026-05-01 10:31 | 41.39357 | -7.73767 | 20899 ft | 369 kts | 220° |
| 2026-05-01 10:31 | 41.35408 | -7.77926 | 20078 ft | 359 kts | 211° |
| 2026-05-01 10:32 | 41.30987 | -7.80831 | 19091 ft | 355 kts | 206° |
| 2026-05-01 10:32 | 41.28769 | -7.82243 | 18596 ft | 353 kts | 206° |
| 2026-05-01 10:32 | 41.24350 | -7.85052 | 17517 ft | 351 kts | 206° |
| 2026-05-01 10:33 | 41.20039 | -7.88001 | 16488 ft | 347 kts | 215° |
| 2026-05-01 10:33 | 41.16817 | -7.92687 | 15464 ft | 348 kts | 239° |
| 2026-05-01 10:34 | 41.15774 | -7.95591 | 14955 ft | 348 kts | 244° |
| 2026-05-01 10:34 | 41.14770 | -7.98501 | 14439 ft | 347 kts | 244° |
| 2026-05-01 10:34 | 41.13662 | -8.01342 | 13913 ft | 345 kts | 233° |
| 2026-05-01 10:35 | 41.09761 | -8.04701 | 12768 ft | 342 kts | 192° |
| 2026-05-01 10:35 | 41.07422 | -8.05223 | 12251 ft | 339 kts | 189° |
| 2026-05-01 10:35 | 41.05102 | -8.05688 | 11770 ft | 336 kts | 189° |
| 2026-05-01 10:35 | 41.02801 | -8.06148 | 11302 ft | 332 kts | 189° |
| 2026-05-01 10:36 | 40.98266 | -8.07051 | 11176 ft | 330 kts | 189° |
| 2026-05-01 10:36 | 40.95997 | -8.07501 | 11180 ft | 330 kts | 189° |
| 2026-05-01 10:36 | 40.93728 | -8.07952 | 11107 ft | 331 kts | 189° |
| 2026-05-01 10:37 | 40.91459 | -8.08405 | 10858 ft | 329 kts | 189° |
| 2026-05-01 10:37 | 40.86978 | -8.09309 | 10190 ft | 320 kts | 189° |
| 2026-05-01 10:37 | 40.84795 | -8.09747 | 9810 ft | 314 kts | 189° |
| 2026-05-01 10:38 | 40.82669 | -8.10265 | 9409 ft | 308 kts | 198° |
| 2026-05-01 10:38 | 40.80836 | -8.11643 | 9023 ft | 303 kts | 222° |
| 2026-05-01 10:38 | 40.79636 | -8.13881 | 8642 ft | 299 kts | 245° |
| 2026-05-01 10:38 | 40.78899 | -8.16432 | 8266 ft | 295 kts | 249° |
| 2026-05-01 10:39 | 40.78226 | -8.18965 | 7937 ft | 289 kts | 249° |
| 2026-05-01 10:39 | 40.77576 | -8.21443 | 7623 ft | 283 kts | 249° |
| 2026-05-01 10:39 | 40.76941 | -8.23881 | 7301 ft | 278 kts | 249° |
| 2026-05-01 10:39 | 40.76318 | -8.26272 | 6992 ft | 274 kts | 249° |
| 2026-05-01 10:40 | 40.75705 | -8.28635 | 6677 ft | 271 kts | 249° |
| 2026-05-01 10:40 | 40.75101 | -8.30962 | 6352 ft | 270 kts | 249° |
| 2026-05-01 10:40 | 40.74488 | -8.33320 | 6171 ft | 269 kts | 249° |
| 2026-05-01 10:40 | 40.73882 | -8.35650 | 6192 ft | 270 kts | 249° |
| 2026-05-01 10:41 | 40.73334 | -8.38021 | 6188 ft | 271 kts | 259° |
| 2026-05-01 10:41 | 40.73406 | -8.40504 | 6184 ft | 275 kts | 283° |
| 2026-05-01 10:41 | 40.75773 | -8.44281 | 6191 ft | 280 kts | 333° |
| 2026-05-01 10:42 | 40.77540 | -8.45386 | 6182 ft | 281 kts | 334° |
| 2026-05-01 10:42 | 40.79311 | -8.46482 | 6181 ft | 281 kts | 334° |
| 2026-05-01 10:42 | 40.81087 | -8.47579 | 6176 ft | 282 kts | 334° |
| 2026-05-01 10:42 | 40.82860 | -8.48676 | 6188 ft | 282 kts | 334° |
| 2026-05-01 10:43 | 40.84637 | -8.49777 | 6191 ft | 282 kts | 334° |
| 2026-05-01 10:43 | 40.86412 | -8.50884 | 6184 ft | 282 kts | 334° |
| 2026-05-01 10:43 | 40.88183 | -8.51992 | 6191 ft | 282 kts | 334° |
| 2026-05-01 10:43 | 40.89965 | -8.53109 | 5953 ft | 286 kts | 334° |
| 2026-05-01 10:44 | 40.91761 | -8.54238 | 5557 ft | 283 kts | 334° |
| 2026-05-01 10:44 | 40.93521 | -8.55344 | 4947 ft | 279 kts | 334° |
| 2026-05-01 10:44 | 40.95264 | -8.56437 | 4373 ft | 276 kts | 334° |
| 2026-05-01 10:44 | 40.97003 | -8.57528 | 3889 ft | 276 kts | 334° |
| 2026-05-01 10:45 | 40.98709 | -8.58597 | 3729 ft | 264 kts | 334° |
| 2026-05-01 10:45 | 41.00327 | -8.59606 | 3631 ft | 251 kts | 334° |
| 2026-05-01 10:45 | 41.01869 | -8.60571 | 3544 ft | 240 kts | 334° |
| 2026-05-01 10:45 | 41.03349 | -8.61501 | 3434 ft | 231 kts | 334° |
| 2026-05-01 10:46 | 41.04770 | -8.62393 | 3333 ft | 223 kts | 334° |
| 2026-05-01 10:46 | 41.06184 | -8.63217 | 3240 ft | 221 kts | 343° |
| 2026-05-01 10:46 | 41.07685 | -8.63643 | 3146 ft | 221 kts | 349° |
| 2026-05-01 10:46 | 41.09192 | -8.64033 | 3051 ft | 220 kts | 349° |
| 2026-05-01 10:47 | 41.10703 | -8.64428 | 2797 ft | 223 kts | 348° |
| 2026-05-01 10:47 | 41.12229 | -8.64828 | 2470 ft | 222 kts | 348° |
| 2026-05-01 10:47 | 41.13720 | -8.65217 | 2176 ft | 213 kts | 348° |
| 2026-05-01 10:47 | 41.15113 | -8.65579 | 1920 ft | 194 kts | 348° |
| 2026-05-01 10:48 | 41.16360 | -8.65903 | 1702 ft | 170 kts | 348° |
| 2026-05-01 10:48 | 41.17460 | -8.66192 | 1401 ft | 155 kts | 347° |
| 2026-05-01 10:48 | 41.18480 | -8.66465 | 1127 ft | 145 kts | 346° |
| 2026-05-01 10:48 | 41.19446 | -8.66720 | 946 ft | 139 kts | 345° |
| 2026-05-01 10:49 | 41.20374 | -8.66964 | 804 ft | 137 kts | 345° |
| 2026-05-01 10:49 | 41.21318 | -8.67212 | 633 ft | 137 kts | 348° |
| 2026-05-01 10:49 | 41.22240 | -8.67446 | 489 ft | 135 kts | 346° |
| 2026-05-01 10:49 | 41.23149 | -8.67693 | 291 ft | 135 kts | 347° |
| 2026-05-01 10:50 | 41.24089 | -8.67936 | 565 ft | 145 kts | 346° |
| 2026-05-01 10:50 | 41.25178 | -8.68256 | 1112 ft | 180 kts | 346° |
| 2026-05-01 10:50 | 41.26525 | -8.68686 | 1750 ft | 209 kts | 346° |
| 2026-05-01 10:50 | 41.27961 | -8.69119 | 2619 ft | 214 kts | 347° |
| 2026-05-01 10:51 | 41.29426 | -8.69559 | 3538 ft | 217 kts | 347° |
| 2026-05-01 10:51 | 41.30919 | -8.70016 | 4398 ft | 223 kts | 347° |
| 2026-05-01 10:51 | 41.32441 | -8.70486 | 5272 ft | 227 kts | 347° |
| 2026-05-01 10:51 | 41.34002 | -8.70973 | 5949 ft | 235 kts | 345° |
| 2026-05-01 10:52 | 41.35436 | -8.71928 | 6147 ft | 234 kts | 316° |
| 2026-05-01 10:52 | 41.36367 | -8.73660 | 6178 ft | 230 kts | 287° |
| 2026-05-01 10:52 | 41.36495 | -8.75723 | 6193 ft | 223 kts | 253° |
| 2026-05-01 10:52 | 41.35759 | -8.77472 | 6193 ft | 217 kts | 219° |
| 2026-05-01 10:53 | 41.34548 | -8.78664 | 6191 ft | 217 kts | 210° |
| 2026-05-01 10:53 | 41.33264 | -8.79725 | 6187 ft | 217 kts | 208° |
| 2026-05-01 10:53 | 41.31858 | -8.80362 | 6197 ft | 215 kts | 185° |
| 2026-05-01 10:53 | 41.30367 | -8.80454 | 6191 ft | 215 kts | 180° |
| 2026-05-01 10:54 | 41.28872 | -8.80460 | 6186 ft | 215 kts | 179° |
| 2026-05-01 10:54 | 41.27374 | -8.80452 | 6196 ft | 215 kts | 179° |
| 2026-05-01 10:54 | 41.25881 | -8.80440 | 6192 ft | 215 kts | 179° |
| 2026-05-01 10:54 | 41.24386 | -8.80428 | 6184 ft | 215 kts | 179° |
| 2026-05-01 10:55 | 41.22890 | -8.80416 | 6183 ft | 215 kts | 179° |
| 2026-05-01 10:55 | 41.21397 | -8.80401 | 6194 ft | 215 kts | 179° |
| 2026-05-01 10:55 | 41.19900 | -8.80378 | 6186 ft | 215 kts | 179° |
| 2026-05-01 10:55 | 41.18401 | -8.80354 | 6190 ft | 215 kts | 179° |
| 2026-05-01 10:56 | 41.16908 | -8.80330 | 6195 ft | 215 kts | 179° |
| 2026-05-01 10:56 | 41.15408 | -8.80306 | 6194 ft | 215 kts | 179° |
| 2026-05-01 10:56 | 41.13911 | -8.80280 | 6194 ft | 215 kts | 179° |
| 2026-05-01 10:56 | 41.12415 | -8.80255 | 6186 ft | 215 kts | 179° |
| 2026-05-01 10:57 | 41.10920 | -8.80231 | 6194 ft | 215 kts | 179° |
| 2026-05-01 10:57 | 41.09431 | -8.80208 | 5998 ft | 213 kts | 179° |
| 2026-05-01 10:57 | 41.07956 | -8.80187 | 5690 ft | 213 kts | 179° |
| 2026-05-01 10:57 | 41.06470 | -8.80170 | 5382 ft | 212 kts | 179° |
| 2026-05-01 10:58 | 41.05001 | -8.80159 | 5089 ft | 211 kts | 179° |
| 2026-05-01 10:58 | 41.03539 | -8.80151 | 4790 ft | 209 kts | 179° |
| 2026-05-01 10:58 | 41.02083 | -8.80146 | 4478 ft | 209 kts | 179° |
| 2026-05-01 10:58 | 41.00629 | -8.80140 | 4163 ft | 209 kts | 179° |
| 2026-05-01 10:59 | 40.99187 | -8.80056 | 4001 ft | 207 kts | 167° |
| 2026-05-01 10:59 | 40.97902 | -8.79239 | 3708 ft | 208 kts | 137° |
| 2026-05-01 10:59 | 40.97112 | -8.77660 | 3400 ft | 209 kts | 107° |
| 2026-05-01 10:59 | 40.97043 | -8.75749 | 3080 ft | 211 kts | 76° |
| 2026-05-01 11:00 | 40.97731 | -8.74056 | 2996 ft | 214 kts | 47° |
| 2026-05-01 11:00 | 40.98797 | -8.72662 | 3011 ft | 216 kts | 45° |
| 2026-05-01 11:00 | 40.99876 | -8.71271 | 3003 ft | 217 kts | 45° |
| 2026-05-01 11:00 | 41.00959 | -8.69876 | 3008 ft | 217 kts | 45° |
| 2026-05-01 11:01 | 41.02044 | -8.68478 | 3010 ft | 218 kts | 45° |
| 2026-05-01 11:01 | 41.03127 | -8.67083 | 3009 ft | 217 kts | 45° |
| 2026-05-01 11:01 | 41.04208 | -8.65689 | 3008 ft | 217 kts | 45° |
| 2026-05-01 11:01 | 41.05334 | -8.64364 | 3006 ft | 217 kts | 33° |
| 2026-05-01 11:02 | 41.06740 | -8.63661 | 3005 ft | 218 kts | 7° |
| 2026-05-01 11:02 | 41.08207 | -8.63771 | 3004 ft | 206 kts | 348° |
| 2026-05-01 11:02 | 41.09586 | -8.64142 | 3009 ft | 201 kts | 348° |
| 2026-05-01 11:02 | 41.10953 | -8.64503 | 2761 ft | 199 kts | 348° |
| 2026-05-01 11:03 | 41.12297 | -8.64854 | 2462 ft | 193 kts | 348° |
| 2026-05-01 11:03 | 41.13576 | -8.65184 | 2190 ft | 185 kts | 348° |
| 2026-05-01 11:03 | 41.14408 | -8.65399 | 2024 ft | 175 kts | 348° |
| 2026-05-01 11:03 | 41.15529 | -8.65689 | 1790 ft | 156 kts | 348° |
| 2026-05-01 11:04 | 41.16882 | -8.66044 | 1417 ft | 144 kts | 346° |
| 2026-05-01 11:04 | 41.17847 | -8.66306 | 1240 ft | 140 kts | 347° |
| 2026-05-01 11:04 | 41.18796 | -8.66541 | 1099 ft | 137 kts | 346° |
| 2026-05-01 11:04 | 41.19731 | -8.66796 | 955 ft | 137 kts | 344° |
| 2026-05-01 11:05 | 41.20361 | -8.66974 | 832 ft | 137 kts | 344° |
| 2026-05-01 11:05 | 41.21289 | -8.67217 | 685 ft | 137 kts | 349° |
| 2026-05-01 11:05 | 41.22217 | -8.67448 | 517 ft | 135 kts | 346° |
| 2026-05-01 11:05 | 41.23125 | -8.67681 | 314 ft | 134 kts | 346° |
| 2026-05-01 11:06 | 41.24001 | -8.67912 | 223 ft | 118 kts | 347° |
| 2026-05-01 11:06 | 41.24655 | -8.68084 | 203 ft | 71 kts | 350° |
| 2026-05-01 11:06 | 41.25013 | -8.68174 | 189 ft | 45 kts | 356° |
| 2026-05-01 11:07 | 41.25280 | -8.68032 | 181 ft | 11 kts | 133° |
| 2026-05-01 11:07 | 41.25224 | -8.68003 | 198 ft | 6 kts | 173° |
| 2026-05-01 11:07 | 41.25199 | -8.67998 | 192 ft | 1 kts | 171° |
| 2026-05-01 11:07 | 41.25197 | -8.67998 | 191 ft | 1 kts | 171° |
| 2026-05-01 11:08 | 41.25146 | -8.67983 | 193 ft | 14 kts | 168° |
| 2026-05-01 11:08 | 41.25007 | -8.67945 | 197 ft | 27 kts | 168° |
| 2026-05-01 11:08 | 41.24630 | -8.67794 | 213 ft | 27 kts | 172° |
| 2026-05-01 11:09 | 41.24445 | -8.67748 | 223 ft | 26 kts | 169° |
| 2026-05-01 11:09 | 41.24284 | -8.67674 | 232 ft | 24 kts | 132° |
| 2026-05-01 11:09 | 41.24170 | -8.67566 | 238 ft | 16 kts | 172° |
| 2026-05-01 11:10 | 41.23920 | -8.67502 | 238 ft | 21 kts | 169° |
| 2026-05-01 11:10 | 41.23776 | -8.67462 | 239 ft | 22 kts | 168° |
| 2026-05-01 11:10 | 41.23688 | -8.67438 | 238 ft | 5 kts | 169° |
| 2026-05-01 11:10 | 41.23657 | -8.67431 | 238 ft | 4 kts | 169° |
| 2026-05-01 11:11 | 41.23631 | -8.67423 | 238 ft | 3 kts | 159° |
| 2026-05-01 11:11 | 41.23601 | -8.67386 | 239 ft | 8 kts | 134° |
| 2026-05-01 11:11 | 41.23578 | -8.67339 | 241 ft | 4 kts | 111° |
| 2026-05-01 11:11 | 41.23564 | -8.67289 | 244 ft | 9 kts | 109° |
| 2026-05-01 11:12 | 41.23553 | -8.67246 | 245 ft | 3 kts | 108° |
| 2026-05-01 11:12 | 41.23549 | -8.67229 | 245 ft | 0 kts | 108° |